MMZH/ZIH METAR and TAF weather

Enter ICAO airport designator
Station Type Date Time Source
MMZH METAR 2021/09/20 01:48 UTC NOAA

MMZH 200148Z 00000KT 7SM SKC 28/24 A2989 RMK HZY ISOL CI MSGTX MMMX


Station Type Date Time Source
MMZH Decoded METAR 2021/09/20 01:48 UTC NOAA

Ixtapa-Zihuatanejo, Mexico (MMZH) 17-36N 101-28W
Sep 19, 2021 - 09:48 PM EDT / 2021.09.20 0148 UTC
Wind: Calm:0
Visibility: 7 mile(s):0
Sky conditions: clear
Temperature: 82 F (28 C)
Dew Point: 75 F (24 C)
Relative Humidity: 78%
Pressure (altimeter): 29.89 in. Hg (1012 hPa)
ob: MMZH 200148Z 00000KT 7SM SKC 28/24 A2989 RMK HZY ISOL CI MSGTX MMMX
cycle: 2

Station Type Date Time Source
MMZH TAF 2021/09/20 06:44 UTC NOAA

TAF MMZH 200438Z 2006/2106 00000KT P6SM SKC
FM201800 23010KT P6SM SCT030 BKN090 BKN250 PROB40 2021/2101 6SM -RA BKN030CB
FM210500 00000KT P6SM SCT030

Example: see airport list